Time;durP1;ratioP1;P1;durP2;ratioP2;P2;SDS_P1;SDS_P2;PMS_P1;PMS_P2;Temp;Humidity;BMP_temperature;BMP_pressure;BME280_temperature;BME280_humidity;BME280_pressure;Samples;Min_cycle;Max_cycle;Signal;HPM_P1;HPM_P2
2022/07/05 00:01:12;;;;;;;5.97;5.37;;;16.30;99.90;;;;;;5069158;28;20515;-64
2022/07/05 00:03:39;;;;;;;5.30;4.80;;;16.30;99.90;;;;;;5069421;28;20459;-63
2022/07/05 00:06:06;;;;;;;5.57;5.07;;;16.20;99.90;;;;;;5069339;28;20542;-64
2022/07/05 00:08:33;;;;;;;6.73;4.90;;;16.10;99.90;;;;;;5069671;28;20805;-64
2022/07/05 00:11:00;;;;;;;6.43;5.57;;;16.10;99.90;;;;;;5069042;28;20435;-63
2022/07/05 00:13:27;;;;;;;7.73;5.33;;;16.00;99.90;;;;;;5069361;28;20463;-64
2022/07/05 00:15:54;;;;;;;7.23;5.43;;;16.00;99.90;;;;;;5069488;28;20965;-63
2022/07/05 00:18:22;;;;;;;6.17;4.83;;;15.90;99.90;;;;;;5069298;28;20443;-63
2022/07/05 00:20:49;;;;;;;5.37;4.87;;;15.90;99.90;;;;;;5068894;28;20917;-64
2022/07/05 00:23:15;;;;;;;5.77;5.20;;;15.80;99.90;;;;;;5069346;28;20554;-63
2022/07/05 00:25:42;;;;;;;7.80;5.03;;;15.70;99.90;;;;;;5069253;28;20443;-63
2022/07/05 00:28:10;;;;;;;6.37;5.50;;;15.60;99.90;;;;;;5069280;28;20441;-64
2022/07/05 00:30:37;;;;;;;5.80;4.70;;;15.70;99.90;;;;;;5069085;28;20447;-64
2022/07/05 00:33:04;;;;;;;5.40;4.90;;;15.70;99.90;;;;;;5069039;28;20980;-64
2022/07/05 00:35:32;;;;;;;5.80;5.20;;;15.70;99.90;;;;;;5069366;28;20435;-63
2022/07/05 00:37:59;;;;;;;6.07;5.47;;;15.70;99.90;;;;;;5069037;28;20466;-63
2022/07/05 00:40:26;;;;;;;6.27;5.40;;;15.60;99.90;;;;;;5068803;28;20447;-63
2022/07/05 00:42:53;;;;;;;6.30;4.93;;;15.60;99.90;;;;;;5069035;28;20473;-64
2022/07/05 00:45:20;;;;;;;6.83;5.67;;;15.50;99.90;;;;;;5070943;28;20525;-63
2022/07/05 00:47:47;;;;;;;5.27;4.87;;;15.50;99.90;;;;;;5072651;28;20529;-64
2022/07/05 00:50:14;;;;;;;5.53;5.03;;;15.50;99.90;;;;;;5072227;28;20971;-63
2022/07/05 00:52:42;;;;;;;7.50;5.90;;;15.50;99.90;;;;;;5072736;28;20489;-63
2022/07/05 00:55:10;;;;;;;7.03;6.43;;;15.40;99.90;;;;;;5072566;28;20439;-64
2022/07/05 00:57:37;;;;;;;7.03;6.13;;;15.40;99.90;;;;;;5072595;28;20439;-64
2022/07/05 01:00:05;;;;;;;6.20;5.70;;;15.30;99.90;;;;;;5072074;28;20443;-64
2022/07/05 01:02:32;;;;;;;7.60;6.90;;;15.30;99.90;;;;;;5072510;28;20510;-64
2022/07/05 01:05:00;;;;;;;7.13;6.43;;;15.30;99.90;;;;;;5072289;28;20932;-63
2022/07/05 01:07:27;;;;;;;6.37;5.60;;;15.20;99.90;;;;;;5072588;28;20450;-63
2022/07/05 01:09:55;;;;;;;6.87;5.70;;;15.10;99.90;;;;;;5072082;28;20453;-63
2022/07/05 01:12:23;;;;;;;7.20;6.50;;;15.20;99.90;;;;;;5072170;28;20459;-64
2022/07/05 01:14:50;;;;;;;6.33;5.70;;;15.30;99.90;;;;;;5072099;28;20457;-64
2022/07/05 01:17:17;;;;;;;10.20;6.20;;;15.20;99.90;;;;;;5072346;28;20451;-64
2022/07/05 01:19:45;;;;;;;7.40;6.47;;;15.20;99.90;;;;;;5071886;28;20439;-64
2022/07/05 01:22:18;;;;;;;7.30;6.60;;;15.30;99.90;;;;;;5071944;28;20489;-63
2022/07/05 01:24:46;;;;;;;6.87;6.23;;;15.30;99.90;;;;;;5072101;28;20442;-64
2022/07/05 01:27:13;;;;;;;7.07;6.37;;;15.30;99.90;;;;;;5071903;28;20447;-64
2022/07/05 01:29:41;;;;;;;7.93;6.90;;;15.20;99.90;;;;;;5071876;28;20955;-61
2022/07/05 01:32:08;;;;;;;7.23;6.53;;;15.20;99.90;;;;;;5071914;28;20469;-64
2022/07/05 01:34:38;;;;;;;7.23;6.50;;;15.20;99.90;;;;;;5072031;28;20443;-64
2022/07/05 01:37:05;;;;;;;7.87;7.07;;;15.10;99.90;;;;;;5071795;28;20455;-63
2022/07/05 01:39:33;;;;;;;7.10;6.40;;;15.10;99.90;;;;;;5071970;28;20516;-64
2022/07/05 01:42:01;;;;;;;6.87;6.00;;;14.90;99.90;;;;;;5071184;28;20485;-63
2022/07/05 01:44:30;;;;;;;7.37;6.07;;;14.80;99.90;;;;;;5072175;28;20521;-64
2022/07/05 01:47:04;;;;;;;10.33;6.57;;;14.70;99.90;;;;;;5071943;28;20458;-64
2022/07/05 01:49:35;;;;;;;7.20;6.50;;;14.70;99.90;;;;;;5071994;28;20450;-64
2022/07/05 01:52:08;;;;;;;10.13;6.27;;;14.70;99.90;;;;;;5071365;28;20854;-63
2022/07/05 01:54:34;;;;;;;7.10;6.40;;;14.60;99.90;;;;;;5071907;28;20830;-64
2022/07/05 01:57:04;;;;;;;8.20;7.40;;;14.50;99.90;;;;;;5071541;28;20447;-64
2022/07/05 01:59:32;;;;;;;9.37;8.30;;;14.50;99.90;;;;;;5071572;28;20443;-64
2022/07/05 02:01:59;;;;;;;10.60;7.40;;;14.50;99.90;;;;;;5070823;28;20501;-64
2022/07/05 02:04:27;;;;;;;8.50;7.70;;;14.50;99.90;;;;;;5071283;28;20552;-64
2022/07/05 02:06:53;;;;;;;8.20;7.50;;;14.50;99.90;;;;;;5071137;28;20840;-64
2022/07/05 02:09:20;;;;;;;8.90;7.13;;;14.50;99.90;;;;;;5071009;28;20440;-64
2022/07/05 02:11:47;;;;;;;7.60;6.90;;;14.50;99.90;;;;;;5070618;28;20941;-64
2022/07/05 02:14:15;;;;;;;7.33;6.20;;;14.50;99.90;;;;;;5070829;28;20458;-64
2022/07/05 02:16:42;;;;;;;9.40;6.90;;;14.50;99.90;;;;;;5071030;28;20455;-64
2022/07/05 02:19:09;;;;;;;7.20;6.50;;;14.50;99.90;;;;;;5070776;28;20460;-64
2022/07/05 02:21:36;;;;;;;7.27;6.20;;;14.60;99.90;;;;;;5070353;28;20561;-64
2022/07/05 02:24:03;;;;;;;8.13;7.33;;;14.50;99.90;;;;;;5070787;28;20949;-64
2022/07/05 02:26:30;;;;;;;9.37;7.63;;;14.50;99.90;;;;;;5070688;28;20806;-64
2022/07/05 02:28:56;;;;;;;8.30;6.90;;;14.40;99.90;;;;;;5070612;28;20458;-64
2022/07/05 02:31:25;;;;;;;8.40;6.60;;;14.40;99.90;;;;;;5070381;28;20827;-64
2022/07/05 02:33:52;;;;;;;7.70;6.90;;;14.40;99.90;;;;;;5070421;28;20570;-65
2022/07/05 02:36:19;;;;;;;7.53;6.47;;;14.40;99.90;;;;;;5070456;28;20443;-64
2022/07/05 02:38:46;;;;;;;8.67;6.80;;;14.30;99.90;;;;;;5070605;28;20447;-64
2022/07/05 02:41:13;;;;;;;7.50;6.83;;;14.30;99.90;;;;;;5070017;28;21043;-64
2022/07/05 02:43:40;;;;;;;9.23;7.80;;;14.30;99.90;;;;;;5070412;28;20466;-62
2022/07/05 02:46:09;;;;;;;8.73;7.90;;;14.20;99.90;;;;;;5070315;28;20447;-64
2022/07/05 02:48:38;;;;;;;8.07;7.27;;;14.10;99.90;;;;;;5070230;28;20826;-64
2022/07/05 02:51:06;;;;;;;8.00;7.30;;;14.00;99.90;;;;;;5070072;28;20453;-64
2022/07/05 02:53:34;;;;;;;7.30;6.70;;;14.10;99.90;;;;;;5070174;28;21007;-64
2022/07/05 02:56:01;;;;;;;7.80;7.20;;;14.10;99.90;;;;;;5070249;28;20451;-62
2022/07/05 02:58:27;;;;;;;8.33;7.53;;;14.10;99.90;;;;;;5070257;28;20447;-64
2022/07/05 03:00:54;;;;;;;7.40;6.80;;;14.10;99.90;;;;;;5069633;28;20443;-64
2022/07/05 03:03:21;;;;;;;9.90;7.07;;;14.00;99.90;;;;;;5069861;28;20494;-64
2022/07/05 03:05:49;;;;;;;8.03;7.23;;;14.00;99.90;;;;;;5070015;28;21112;-65
2022/07/05 03:08:16;;;;;;;8.67;7.23;;;14.00;99.90;;;;;;5069649;28;20447;-64
2022/07/05 03:10:43;;;;;;;8.30;7.50;;;13.90;99.90;;;;;;5069620;28;20447;-64
2022/07/05 03:13:10;;;;;;;9.40;7.97;;;13.80;99.90;;;;;;5069994;28;20550;-64
2022/07/05 03:15:36;;;;;;;8.20;7.40;;;13.70;99.90;;;;;;5069733;28;20462;-64
2022/07/05 03:18:03;;;;;;;8.03;7.23;;;13.80;99.90;;;;;;5070076;28;20454;-64
2022/07/05 03:20:30;;;;;;;9.60;7.97;;;13.80;99.90;;;;;;5069354;28;20450;-63
2022/07/05 03:22:58;;;;;;;10.10;8.00;;;13.80;99.90;;;;;;5069786;28;20483;-64
2022/07/05 03:25:25;;;;;;;9.97;8.97;;;13.90;99.90;;;;;;5069798;28;20800;-64
2022/07/05 03:27:52;;;;;;;8.87;8.07;;;13.90;99.90;;;;;;5069829;28;20447;-64
2022/07/05 03:30:19;;;;;;;8.20;7.40;;;13.80;99.90;;;;;;5069373;28;20449;-64
2022/07/05 03:32:45;;;;;;;8.17;7.37;;;13.70;99.90;;;;;;5069533;28;21013;-64
2022/07/05 03:35:12;;;;;;;8.50;7.63;;;13.70;99.90;;;;;;5069863;28;20531;-63
2022/07/05 03:37:39;;;;;;;11.50;8.63;;;13.70;99.90;;;;;;5069549;28;20945;-63
2022/07/05 03:40:09;;;;;;;9.20;8.40;;;13.70;99.90;;;;;;5069318;28;20447;-64
2022/07/05 03:42:36;;;;;;;9.50;8.67;;;13.70;99.90;;;;;;5069270;28;20483;-64
2022/07/05 03:45:03;;;;;;;8.80;8.00;;;13.80;99.90;;;;;;5069799;28;20462;-64
2022/07/05 03:47:30;;;;;;;8.40;7.60;;;13.80;99.90;;;;;;5069538;28;20459;-63
2022/07/05 03:49:57;;;;;;;11.93;8.53;;;13.80;99.90;;;;;;5069449;28;20549;-63
2022/07/05 03:52:24;;;;;;;10.13;8.87;;;13.70;99.90;;;;;;5069303;28;21019;-64
2022/07/05 03:54:50;;;;;;;9.00;8.20;;;13.70;99.90;;;;;;5069515;28;20439;-64
2022/07/05 03:57:18;;;;;;;11.27;10.23;;;13.80;99.90;;;;;;5069339;28;20542;-64
2022/07/05 03:59:45;;;;;;;10.77;9.77;;;13.70;99.90;;;;;;5069488;28;20537;-64
2022/07/05 04:02:12;;;;;;;9.97;8.97;;;13.70;99.90;;;;;;5069779;28;20518;-63
2022/07/05 04:04:39;;;;;;;10.00;9.10;;;13.80;99.90;;;;;;5069703;28;20451;-63
2022/07/05 04:07:06;;;;;;;11.43;9.50;;;13.80;99.90;;;;;;5069667;28;20453;-64
2022/07/05 04:09:33;;;;;;;11.17;10.03;;;13.80;99.90;;;;;;5069291;28;21103;-64
2022/07/05 04:11:59;;;;;;;11.07;10.00;;;13.80;99.90;;;;;;5068842;28;20447;-64
2022/07/05 04:14:28;;;;;;;10.67;9.70;;;13.90;99.90;;;;;;5069165;28;20447;-64
2022/07/05 04:16:54;;;;;;;9.97;8.97;;;13.90;99.90;;;;;;5069371;28;20945;-64
2022/07/05 04:19:21;;;;;;;10.57;9.57;;;14.00;99.90;;;;;;5069600;28;21068;-64
2022/07/05 04:21:48;;;;;;;10.83;9.70;;;14.10;99.90;;;;;;5072826;28;20482;-64
2022/07/05 04:24:15;;;;;;;10.63;9.53;;;14.20;99.90;;;;;;5073002;28;20439;-63
2022/07/05 04:26:42;;;;;;;10.23;9.33;;;14.30;99.90;;;;;;5073434;28;20451;-63
2022/07/05 04:29:09;;;;;;;8.77;8.07;;;14.40;99.90;;;;;;5073425;28;20872;-64
2022/07/05 04:31:37;;;;;;;9.30;8.50;;;14.40;99.90;;;;;;5072951;28;20469;-64
2022/07/05 04:34:04;;;;;;;8.70;7.90;;;14.50;99.90;;;;;;5073093;28;20468;-64
2022/07/05 04:36:31;;;;;;;10.07;9.00;;;14.50;99.90;;;;;;5072905;28;20550;-64
2022/07/05 04:38:58;;;;;;;10.17;9.03;;;14.60;99.90;;;;;;5072925;28;20534;-64
2022/07/05 04:41:25;;;;;;;8.97;8.27;;;14.60;99.90;;;;;;5072047;28;20446;-63
2022/07/05 04:43:52;;;;;;;10.43;8.53;;;14.70;99.90;;;;;;5072510;28;20490;-65
2022/07/05 04:46:19;;;;;;;8.03;7.20;;;14.70;99.90;;;;;;5072664;28;20439;-64
2022/07/05 04:48:47;;;;;;;8.60;7.87;;;14.80;99.90;;;;;;5072852;28;20431;-64
2022/07/05 04:51:14;;;;;;;8.37;7.57;;;14.80;99.90;;;;;;5071622;28;20439;-64
2022/07/05 04:53:43;;;;;;;9.70;8.23;;;14.90;99.90;;;;;;5072113;28;20467;-64
2022/07/05 04:56:09;;;;;;;8.60;7.90;;;14.90;99.90;;;;;;5072285;28;21015;-68
2022/07/05 04:58:36;;;;;;;9.17;7.97;;;14.90;99.90;;;;;;5070664;28;20570;-65
2022/07/05 05:01:03;;;;;;;8.40;7.70;;;14.90;99.90;;;;;;5057918;28;20442;-64
2022/07/05 05:03:30;;;;;;;11.90;9.37;;;15.00;99.90;;;;;;5052237;28;20483;-64
2022/07/05 05:05:59;;;;;;;9.67;8.77;;;15.10;99.90;;;;;;5052222;28;20800;-64
2022/07/05 05:08:26;;;;;;;8.77;7.97;;;15.10;99.90;;;;;;5051929;28;21196;-65
2022/07/05 05:10:53;;;;;;;14.97;9.07;;;15.20;99.90;;;;;;5065449;28;20451;-65
2022/07/05 05:13:20;;;;;;;11.50;7.80;;;15.30;99.90;;;;;;5070259;28;20471;-65
2022/07/05 05:15:47;;;;;;;10.57;9.57;;;15.40;99.90;;;;;;5068664;28;20454;-65
2022/07/05 05:18:15;;;;;;;10.63;8.07;;;15.50;99.90;;;;;;5069164;28;20458;-65
2022/07/05 05:20:41;;;;;;;7.60;6.90;;;15.60;99.90;;;;;;5066431;28;20513;-65
2022/07/05 05:23:10;;;;;;;10.53;8.77;;;15.70;99.90;;;;;;5066432;28;20482;-65
2022/07/05 05:25:36;;;;;;;9.27;8.40;;;15.80;99.90;;;;;;5067976;28;20447;-65
2022/07/05 05:28:04;;;;;;;9.37;7.40;;;15.90;99.90;;;;;;5067595;28;20435;-65
2022/07/05 05:30:31;;;;;;;8.63;7.77;;;15.90;99.90;;;;;;5070180;28;20439;-65
2022/07/05 05:32:58;;;;;;;9.10;8.30;;;16.00;99.90;;;;;;5071256;28;21213;-65
2022/07/05 05:35:24;;;;;;;10.97;7.80;;;16.00;99.90;;;;;;5071243;28;20521;-65
2022/07/05 05:37:53;;;;;;;8.10;7.30;;;16.20;99.90;;;;;;5070974;28;20455;-65
2022/07/05 05:40:22;;;;;;;8.13;7.27;;;16.30;99.90;;;;;;5070931;28;20809;-65
2022/07/05 05:42:50;;;;;;;8.37;7.07;;;16.40;99.90;;;;;;5071599;28;20564;-60
2022/07/05 05:45:17;;;;;;;8.77;7.17;;;16.40;99.90;;;;;;5071598;28;20482;-66
2022/07/05 05:47:45;;;;;;;6.70;5.60;;;16.40;99.90;;;;;;5071611;28;20445;-64
2022/07/05 05:50:12;;;;;;;4.40;3.50;;;16.50;99.90;;;;;;5070862;28;20950;-64
2022/07/05 05:52:39;;;;;;;5.30;3.00;;;16.60;99.90;;;;;;5071483;28;20459;-66
2022/07/05 05:55:07;;;;;;;4.00;3.60;;;16.80;99.90;;;;;;5071302;28;20453;-65
2022/07/05 05:57:36;;;;;;;4.40;3.10;;;17.00;99.90;;;;;;5071046;28;20454;-66
2022/07/05 06:00:04;;;;;;;3.20;2.60;;;17.20;99.90;;;;;;5070444;28;20457;-65
2022/07/05 06:02:31;;;;;;;7.77;2.87;;;17.40;99.90;;;;;;5071134;28;20479;-65
2022/07/05 06:04:58;;;;;;;3.60;3.10;;;17.50;99.90;;;;;;5070977;28;20443;-65
2022/07/05 06:07:25;;;;;;;3.80;2.77;;;17.70;99.90;;;;;;5071226;28;20447;-65
2022/07/05 06:09:52;;;;;;;3.57;2.40;;;17.80;99.90;;;;;;5070734;28;20454;-64
2022/07/05 06:12:19;;;;;;;3.77;2.40;;;17.90;99.90;;;;;;5070838;28;20463;-65
2022/07/05 06:14:47;;;;;;;3.13;2.23;;;18.10;99.90;;;;;;5071114;28;20516;-65
2022/07/05 06:17:14;;;;;;;6.60;2.90;;;18.10;99.90;;;;;;5070684;28;20451;-65
2022/07/05 06:19:40;;;;;;;5.80;2.70;;;18.20;99.90;;;;;;5070941;28;20462;-65
2022/07/05 06:22:07;;;;;;;5.50;2.60;;;18.30;99.90;;;;;;5070239;28;20988;-64
2022/07/05 06:24:34;;;;;;;3.70;2.53;;;18.40;99.90;;;;;;5070835;28;20455;-64
2022/07/05 06:27:01;;;;;;;3.23;2.43;;;18.40;99.90;;;;;;5070534;28;20549;-64
2022/07/05 06:29:28;;;;;;;3.00;2.53;;;18.50;99.90;;;;;;5070576;28;20455;-64
2022/07/05 06:31:56;;;;;;;6.33;2.27;;;18.50;99.90;;;;;;5069959;28;20450;-64
2022/07/05 06:34:22;;;;;;;4.00;2.50;;;18.60;99.90;;;;;;5070413;28;20963;-63
2022/07/05 06:36:49;;;;;;;5.00;2.60;;;18.80;99.90;;;;;;5070147;28;20461;-64
2022/07/05 06:39:16;;;;;;;5.20;2.17;;;18.90;99.90;;;;;;5070562;28;20466;-64
2022/07/05 06:41:43;;;;;;;3.80;2.77;;;19.00;99.90;;;;;;5069907;28;20832;-64
2022/07/05 06:44:09;;;;;;;3.20;2.13;;;19.10;99.90;;;;;;5069890;28;20486;-64
2022/07/05 06:46:36;;;;;;;4.40;2.37;;;19.10;99.90;;;;;;5070427;28;20442;-64
2022/07/05 06:49:04;;;;;;;4.80;2.70;;;19.20;99.90;;;;;;5070461;28;20443;-64
2022/07/05 06:51:31;;;;;;;3.37;2.43;;;19.30;99.90;;;;;;5069982;28;21109;-64
2022/07/05 06:53:58;;;;;;;3.67;2.07;;;19.30;99.90;;;;;;5070299;28;20467;-64
2022/07/05 06:56:25;;;;;;;6.03;2.80;;;19.40;99.90;;;;;;5070421;28;20443;-64
2022/07/05 06:58:51;;;;;;;3.10;2.40;;;19.50;99.90;;;;;;5070188;28;20450;-64
2022/07/05 07:01:18;;;;;;;5.27;2.60;;;19.60;99.90;;;;;;5069900;28;20451;-64
2022/07/05 07:03:46;;;;;;;3.23;2.30;;;19.60;99.90;;;;;;5070317;28;20505;-65
2022/07/05 07:06:15;;;;;;;7.43;3.30;;;19.70;99.90;;;;;;5070530;28;20451;-64
2022/07/05 07:11:26;;;;;;;4.27;2.07;;;20.00;99.90;;;;;;5070074;28;20492;-65
2022/07/05 07:13:53;;;;;;;3.90;2.30;;;20.10;99.90;;;;;;5070283;28;20463;-64
2022/07/05 07:16:20;;;;;;;6.80;2.53;;;20.10;99.90;;;;;;5070464;28;20443;-65
2022/07/05 07:18:47;;;;;;;6.60;2.70;;;20.20;99.90;;;;;;5070231;28;20458;-64
2022/07/05 07:21:15;;;;;;;3.07;1.90;;;20.40;99.90;;;;;;5069991;28;20446;-64
2022/07/05 07:23:42;;;;;;;6.53;2.20;;;20.50;99.90;;;;;;5069929;28;20487;-64
2022/07/05 07:26:09;;;;;;;4.67;2.27;;;20.60;99.90;;;;;;5070134;28;20447;-64
2022/07/05 07:28:36;;;;;;;3.87;2.27;;;20.70;99.90;;;;;;5070179;28;20457;-64
2022/07/05 07:31:04;;;;;;;6.10;2.43;;;20.80;99.90;;;;;;5069729;28;20450;-64
2022/07/05 07:33:30;;;;;;;3.30;2.43;;;20.90;99.90;;;;;;5069764;28;20467;-64
2022/07/05 07:35:58;;;;;;;3.67;2.60;;;21.00;99.90;;;;;;5069790;28;20442;-64
2022/07/05 07:38:29;;;;;;;4.47;2.77;;;21.10;99.90;;;;;;5069757;28;20451;-64
2022/07/05 07:40:56;;;;;;;4.00;2.43;;;21.10;99.90;;;;;;5069540;28;20439;-64
2022/07/05 07:43:23;;;;;;;5.43;2.50;;;21.30;99.90;;;;;;5069840;28;20580;-64
2022/07/05 07:45:49;;;;;;;6.70;2.50;;;21.40;99.90;;;;;;5069647;28;20442;-64
2022/07/05 07:48:16;;;;;;;4.87;2.43;;;21.50;99.90;;;;;;5069979;28;20538;-64
2022/07/05 07:50:48;;;;;;;4.07;2.67;;;21.60;99.90;;;;;;5069287;28;20447;-64
2022/07/05 07:53:15;;;;;;;3.07;2.00;;;21.70;99.90;;;;;;5069922;28;20467;-64
2022/07/05 07:55:43;;;;;;;7.47;2.30;;;21.80;99.90;;;;;;5073501;28;20450;-64
2022/07/05 07:58:09;;;;;;;3.97;2.80;;;21.80;99.90;;;;;;5073867;28;20447;-64
2022/07/05 08:00:36;;;;;;;3.33;2.33;;;21.80;99.90;;;;;;5073499;28;20442;-65
2022/07/05 08:03:03;;;;;;;4.30;2.40;;;21.90;99.90;;;;;;5072086;28;20458;-64
2022/07/05 08:05:30;;;;;;;4.00;2.50;;;22.00;99.90;;;;;;5073650;28;20720;-64
2022/07/05 08:07:57;;;;;;;4.20;2.00;;;22.00;99.90;;;;;;5073749;28;20550;-64
2022/07/05 08:10:24;;;;;;;4.00;2.57;;;22.20;99.90;;;;;;5073234;28;20450;-63
2022/07/05 08:12:52;;;;;;;3.97;2.00;;;22.30;99.90;;;;;;5073350;28;20477;-64
2022/07/05 08:15:19;;;;;;;6.50;1.93;;;22.40;99.90;;;;;;5066532;28;20444;-64
2022/07/05 08:23:11;;;;;;;2.93;1.40;;;22.50;98.60;;;;;;5058456;28;20496;-64
2022/07/05 08:25:37;;;;;;;3.13;1.80;;;22.60;99.90;;;;;;5060204;28;20457;-64
2022/07/05 08:28:06;;;;;;;2.93;1.80;;;22.60;99.10;;;;;;5059404;28;20443;-63
2022/07/05 08:30:32;;;;;;;2.87;1.97;;;22.70;99.90;;;;;;5061684;28;20452;-64
2022/07/05 08:32:59;;;;;;;3.83;2.03;;;22.80;99.90;;;;;;5064947;28;20459;-65
2022/07/05 08:35:26;;;;;;;2.10;1.40;;;22.90;99.00;;;;;;5069640;28;20463;-63
2022/07/05 08:37:53;;;;;;;3.80;2.17;;;23.10;99.20;;;;;;5064348;28;20463;-65
2022/07/05 08:40:26;;;;;;;2.73;1.77;;;23.30;98.00;;;;;;5068961;28;20447;-65
2022/07/05 08:42:55;;;;;;;3.80;2.03;;;23.20;97.30;;;;;;5062499;28;20482;-65
2022/07/05 08:45:26;;;;;;;3.37;1.70;;;23.30;96.70;;;;;;5063744;28;20451;-65
2022/07/05 08:47:56;;;;;;;4.00;1.93;;;23.30;96.30;;;;;;5060349;28;20450;-64
2022/07/05 08:50:23;;;;;;;3.90;2.10;;;23.30;95.70;;;;;;5064485;28;20965;-65
2022/07/05 08:52:51;;;;;;;4.40;1.80;;;23.50;97.20;;;;;;5066053;28;20474;-64
2022/07/05 08:55:18;;;;;;;2.63;1.50;;;23.50;97.20;;;;;;5059171;28;20489;-63
2022/07/05 08:57:45;;;;;;;3.27;1.70;;;23.60;95.80;;;;;;5062082;28;20446;-63
2022/07/05 09:00:14;;;;;;;3.97;1.83;;;23.60;96.80;;;;;;5061414;28;20462;-64
2022/07/05 09:02:42;;;;;;;3.67;1.77;;;23.70;96.10;;;;;;5065986;28;20474;-65
2022/07/05 09:05:14;;;;;;;3.50;1.67;;;23.90;96.60;;;;;;5064262;28;20862;-64
2022/07/05 09:07:45;;;;;;;7.80;1.77;;;24.20;96.10;;;;;;5064076;28;20448;-63
2022/07/05 09:10:13;;;;;;;3.40;1.70;;;24.30;96.20;;;;;;5063701;28;20566;-63
2022/07/05 09:12:40;;;;;;;5.30;2.07;;;24.30;95.50;;;;;;5058411;28;20980;-62
2022/07/05 09:15:07;;;;;;;4.73;2.30;;;24.40;95.80;;;;;;5065743;28;20558;-64
2022/07/05 09:17:44;;;;;;;4.00;2.10;;;24.30;95.30;;;;;;5067779;28;20821;-65
2022/07/05 09:20:13;;;;;;;6.43;1.90;;;24.40;95.80;;;;;;5063688;28;20574;-63
2022/07/05 09:22:44;;;;;;;3.67;1.80;;;24.50;95.20;;;;;;5063977;28;20467;-65
2022/07/05 09:25:19;;;;;;;4.70;1.83;;;24.70;94.80;;;;;;5066161;28;20996;-65
2022/07/05 09:27:54;;;;;;;3.13;1.67;;;24.60;92.70;;;;;;5070666;28;20450;-65
2022/07/05 09:30:30;;;;;;;2.93;2.27;;;24.60;93.40;;;;;;5070379;28;20450;-64
2022/07/05 09:33:04;;;;;;;7.07;1.80;;;24.70;93.30;;;;;;5060199;28;20502;-64
2022/07/05 09:35:30;;;;;;;3.70;1.50;;;24.80;93.40;;;;;;5067740;28;21058;-65
2022/07/05 09:37:57;;;;;;;5.30;1.80;;;24.90;93.50;;;;;;5062189;28;20466;-63
2022/07/05 09:40:24;;;;;;;3.70;1.47;;;25.00;93.10;;;;;;5062201;28;20457;-65
2022/07/05 09:42:51;;;;;;;3.70;1.50;;;25.00;92.10;;;;;;5060018;28;20463;-65
2022/07/05 09:45:25;;;;;;;4.13;1.87;;;25.10;92.50;;;;;;5059353;28;21020;-65
2022/07/05 09:47:54;;;;;;;2.30;1.57;;;25.20;91.10;;;;;;5057413;28;20436;-65
2022/07/05 09:50:35;;;;;;;4.97;1.67;;;25.30;91.70;;;;;;5067342;28;20454;-65
2022/07/05 09:53:02;;;;;;;2.87;1.70;;;25.30;92.60;;;;;;5065106;28;20467;-65
2022/07/05 09:55:30;;;;;;;3.20;1.53;;;25.40;91.30;;;;;;5064760;28;20817;-65
2022/07/05 09:57:56;;;;;;;3.73;1.40;;;25.60;90.10;;;;;;5058697;28;20444;-65
2022/07/05 10:00:24;;;;;;;3.20;1.50;;;25.50;90.00;;;;;;5069784;28;20526;-64
2022/07/05 10:02:53;;;;;;;3.90;1.77;;;25.80;90.50;;;;;;5068576;28;20853;-66
2022/07/05 10:05:22;;;;;;;4.47;1.57;;;26.00;89.40;;;;;;5062593;28;20479;-65
2022/07/05 10:07:52;;;;;;;2.60;1.30;;;26.80;88.90;;;;;;5067720;28;20454;-66
2022/07/05 10:10:20;;;;;;;2.80;1.57;;;27.80;86.90;;;;;;5064952;28;20970;-63
2022/07/05 10:12:49;;;;;;;3.17;1.30;;;28.30;83.20;;;;;;5055485;28;20477;-64
2022/07/05 10:15:19;;;;;;;4.00;1.23;;;28.60;75.60;;;;;;5051197;28;20450;-66
2022/07/05 10:17:47;;;;;;;3.70;1.30;;;29.00;74.80;;;;;;5050302;28;20448;-66
2022/07/05 10:20:20;;;;;;;2.83;1.20;;;29.10;72.80;;;;;;5060266;28;20447;-66
2022/07/05 10:22:47;;;;;;;2.47;1.10;;;28.90;69.00;;;;;;5068182;28;20465;-65
2022/07/05 10:25:16;;;;;;;4.93;1.20;;;28.90;70.50;;;;;;5066936;28;20540;-65
2022/07/05 10:27:43;;;;;;;2.63;1.00;;;28.80;67.20;;;;;;5066203;28;20447;-65
2022/07/05 10:30:12;;;;;;;2.53;1.10;;;28.90;68.80;;;;;;5062382;28;20455;-65
2022/07/05 10:32:40;;;;;;;2.00;1.23;;;29.00;69.40;;;;;;5065315;28;20459;-66
2022/07/05 10:35:08;;;;;;;3.27;1.50;;;28.90;69.70;;;;;;5068513;28;20566;-65
2022/07/05 10:37:36;;;;;;;2.77;1.20;;;28.90;68.20;;;;;;5068445;28;20864;-66
2022/07/05 10:40:05;;;;;;;2.27;1.00;;;29.00;67.90;;;;;;5065325;28;20447;-66
2022/07/05 10:42:38;;;;;;;3.07;1.13;;;29.10;65.30;;;;;;5066658;28;20920;-66
2022/07/05 10:45:26;;;;;;;2.50;1.30;;;28.90;65.00;;;;;;5060544;28;20485;-65
2022/07/05 10:48:19;;;;;;;2.40;1.10;;;28.90;66.50;;;;;;5063792;28;20450;-66
2022/07/05 10:50:50;;;;;;;3.20;1.70;;;29.40;66.50;;;;;;5065936;28;20450;-66
2022/07/05 10:53:19;;;;;;;2.20;1.30;;;29.30;67.10;;;;;;5065312;28;20557;-65
2022/07/05 10:56:12;;;;;;;4.20;1.27;;;29.80;64.00;;;;;;5068077;28;20809;-66
2022/07/05 10:58:42;;;;;;;2.37;1.47;;;28.80;62.70;;;;;;5065284;28;20443;-66
2022/07/05 11:01:33;;;;;;;3.17;1.10;;;28.90;63.90;;;;;;5069487;28;20451;-66
2022/07/05 11:04:19;;;;;;;3.47;1.60;;;29.10;64.40;;;;;;5064997;28;21125;-65
2022/07/05 11:06:49;;;;;;;3.17;1.47;;;28.90;65.20;;;;;;5061899;28;20455;-65
2022/07/05 11:09:17;;;;;;;2.20;1.23;;;28.80;64.10;;;;;;5069723;28;20454;-65
2022/07/05 11:11:46;;;;;;;3.30;1.50;;;28.70;61.60;;;;;;5063733;28;20546;-65
2022/07/05 11:14:38;;;;;;;2.80;1.50;;;28.80;60.10;;;;;;5069708;28;20470;-67
2022/07/05 11:17:13;;;;;;;2.60;1.20;;;29.10;59.10;;;;;;5069657;28;20764;-66
2022/07/05 11:20:12;;;;;;;3.27;1.20;;;28.80;61.10;;;;;;5065777;28;20443;-65
2022/07/05 11:22:41;;;;;;;4.50;1.30;;;28.00;62.30;;;;;;5059364;28;20468;-65
2022/07/05 11:25:10;;;;;;;3.90;1.60;;;27.80;65.00;;;;;;5065423;28;20486;-65
2022/07/05 11:27:37;;;;;;;6.23;1.30;;;28.10;65.20;;;;;;5066024;28;20502;-65
2022/07/05 11:30:23;;;;;;;3.07;1.17;;;28.80;65.00;;;;;;5057271;28;20520;-66
2022/07/05 11:32:50;;;;;;;3.37;1.33;;;28.80;60.80;;;;;;5058740;28;21008;-65
2022/07/05 11:35:18;;;;;;;2.60;1.27;;;29.20;64.90;;;;;;5067400;28;20449;-66
2022/07/05 11:38:15;;;;;;;3.87;1.30;;;30.10;61.80;;;;;;5062828;28;20457;-66
2022/07/05 11:40:43;;;;;;;2.23;1.40;;;30.80;58.30;;;;;;5026894;28;20442;-66
2022/07/05 11:43:10;;;;;;;2.57;1.20;;;30.80;56.60;;;;;;5059680;28;20471;-66
2022/07/05 11:45:39;;;;;;;3.03;1.30;;;31.00;58.60;;;;;;5069726;28;20610;-68
2022/07/05 11:48:06;;;;;;;4.63;1.30;;;30.80;57.90;;;;;;5069371;28;20826;-65
2022/07/05 11:50:35;;;;;;;1.90;1.10;;;30.70;56.20;;;;;;5067972;28;20536;-65
2022/07/05 11:53:02;;;;;;;2.67;1.47;;;30.50;54.90;;;;;;5067715;28;20550;-66
2022/07/05 11:55:30;;;;;;;2.23;1.00;;;30.90;57.50;;;;;;5069570;28;20534;-65
2022/07/05 11:57:59;;;;;;;2.87;1.20;;;31.10;55.60;;;;;;5066586;28;20439;-64
2022/07/05 12:00:31;;;;;;;3.00;1.20;;;31.10;55.70;;;;;;5068957;28;20501;-65
2022/07/05 12:03:00;;;;;;;3.60;1.10;;;31.40;55.00;;;;;;5069607;28;20478;-65
2022/07/05 12:05:33;;;;;;;3.40;1.20;;;31.40;52.90;;;;;;5069444;28;20522;-64
2022/07/05 12:08:00;;;;;;;3.13;1.20;;;31.30;56.40;;;;;;5069552;28;20834;-64
2022/07/05 12:13:11;;;;;;;2.90;1.20;;;31.30;55.80;;;;;;5069161;28;20455;-64
2022/07/05 12:15:39;;;;;;;2.47;1.10;;;31.40;62.30;;;;;;5068029;28;20470;-64
2022/07/05 12:18:11;;;;;;;4.30;1.30;;;32.30;55.10;;;;;;5069485;28;20458;-63
2022/07/05 12:20:39;;;;;;;3.17;1.10;;;32.50;53.60;;;;;;5069084;28;20912;-65
2022/07/05 12:23:08;;;;;;;3.40;1.27;;;32.20;55.10;;;;;;5069195;28;20471;-64
2022/07/05 12:25:36;;;;;;;3.83;1.90;;;32.10;54.40;;;;;;5069141;28;20569;-64
2022/07/05 12:28:06;;;;;;;2.43;1.60;;;32.00;52.90;;;;;;5069468;28;20449;-66
2022/07/05 12:30:33;;;;;;;3.00;1.37;;;31.80;55.60;;;;;;5069068;28;20454;-65
2022/07/05 12:33:02;;;;;;;2.73;1.20;;;31.30;57.00;;;;;;5063641;28;20467;-64
2022/07/05 12:35:36;;;;;;;4.40;1.50;;;31.30;54.80;;;;;;5065659;28;20450;-64
2022/07/05 12:38:08;;;;;;;3.20;1.50;;;31.50;53.40;;;;;;5062041;28;20459;-65
2022/07/05 12:40:36;;;;;;;3.33;1.73;;;31.80;56.50;;;;;;5068417;28;20446;-65
2022/07/05 12:43:08;;;;;;;2.97;1.57;;;32.70;54.40;;;;;;5069050;28;20459;-65
2022/07/05 12:45:35;;;;;;;7.37;1.70;;;32.50;54.30;;;;;;5072479;28;20478;-65
2022/07/05 12:48:04;;;;;;;2.37;1.40;;;31.70;55.10;;;;;;5069513;28;20446;-64
2022/07/05 12:50:47;;;;;;;7.70;1.50;;;31.50;55.10;;;;;;5072877;28;20449;-64
2022/07/05 12:58:47;;;;;;;5.47;1.50;;;32.70;56.00;;;;;;5060158;28;20455;-65
2022/07/05 13:01:21;;;;;;;1.90;1.20;;;32.60;52.60;;;;;;5060601;28;20447;-65
2022/07/05 13:03:58;;;;;;;3.47;1.40;;;31.70;53.30;;;;;;5064261;28;20475;-64
2022/07/05 13:06:41;;;;;;;3.77;1.60;;;31.30;54.50;;;;;;5059632;28;20891;-65
2022/07/05 13:09:08;;;;;;;1.90;1.13;;;31.40;55.40;;;;;;5067937;28;20455;-64